地図

経路データ

SID SEASON NUMBER BASIN SUBBASIN NAME ISO_TIME NATURE LAT LON WMO_WIND WMO_PRES WMO_AGENCY TRACK_TYPE DIST2LAND LANDFALL IFLAG USA_AGENCY USA_ATCF_ID USA_LAT USA_LON USA_RECORD USA_STATUS USA_WIND USA_PRES USA_SSHS USA_R34_NE USA_R34_SE USA_R34_SW USA_R34_NW USA_R50_NE USA_R50_SE USA_R50_SW USA_R50_NW USA_R64_NE USA_R64_SE USA_R64_SW USA_R64_NW USA_POCI USA_ROCI USA_RMW USA_EYE TOKYO_LAT TOKYO_LON TOKYO_GRADE TOKYO_WIND TOKYO_PRES TOKYO_R50_DIR TOKYO_R50_LONG TOKYO_R50_SHORT TOKYO_R30_DIR TOKYO_R30_LONG TOKYO_R30_SHORT TOKYO_LAND CMA_LAT CMA_LON CMA_CAT CMA_WIND CMA_PRES HKO_LAT HKO_LON HKO_CAT HKO_WIND HKO_PRES NEWDELHI_LAT NEWDELHI_LON NEWDELHI_GRADE NEWDELHI_WIND NEWDELHI_PRES NEWDELHI_CI NEWDELHI_DP NEWDELHI_POCI REUNION_LAT REUNION_LON REUNION_TYPE REUNION_WIND REUNION_PRES REUNION_TNUM REUNION_CI REUNION_RMW REUNION_R34_NE REUNION_R34_SE REUNION_R34_SW REUNION_R34_NW REUNION_R50_NE REUNION_R50_SE REUNION_R50_SW REUNION_R50_NW REUNION_R64_NE REUNION_R64_SE REUNION_R64_SW REUNION_R64_NW BOM_LAT BOM_LON BOM_TYPE BOM_WIND BOM_PRES BOM_TNUM BOM_CI BOM_RMW BOM_R34_NE BOM_R34_SE BOM_R34_SW BOM_R34_NW BOM_R50_NE BOM_R50_SE BOM_R50_SW BOM_R50_NW BOM_R64_NE BOM_R64_SE BOM_R64_SW BOM_R64_NW BOM_ROCI BOM_POCI BOM_EYE BOM_POS_METHOD BOM_PRES_METHOD NADI_LAT NADI_LON NADI_CAT NADI_WIND NADI_PRES WELLINGTON_LAT WELLINGTON_LON WELLINGTON_WIND WELLINGTON_PRES DS824_LAT DS824_LON DS824_STAGE DS824_WIND DS824_PRES TD9636_LAT TD9636_LON TD9636_STAGE TD9636_WIND TD9636_PRES TD9635_LAT TD9635_LON TD9635_WIND TD9635_PRES TD9635_ROCI NEUMANN_LAT NEUMANN_LON NEUMANN_CLASS NEUMANN_WIND NEUMANN_PRES MLC_LAT MLC_LON MLC_CLASS MLC_WIND MLC_PRES USA_GUST BOM_GUST BOM_GUST_PER REUNION_GUST REUNION_GUST_PER USA_SEAHGT USA_SEARAD_NE USA_SEARAD_SE USA_SEARAD_SW USA_SEARAD_NW STORM_SPEED STORM_DIR
1986283N10179 1986 102 WP MM FORREST 1986-10-10 00:00:00 NR 10.3000 178.900 main 2620 2620 __________O___ -1 10.3000 178.900 0 5 276
1986283N10179 1986 102 WP MM FORREST 1986-10-10 03:00:00 NR 10.3292 178.630 main 2647 2647 __________P___ -1 10.3292 178.630 0 5 276
1986283N10179 1986 102 WP MM FORREST 1986-10-10 06:00:00 NR 10.3591 178.356 main 2660 2660 __________P___ -1 10.3591 178.356 0 6 276
1986283N10179 1986 102 WP MM FORREST 1986-10-10 09:00:00 NR 10.3905 178.074 main 2688 2688 __________P___ -1 10.3905 178.074 0 6 277
1986283N10179 1986 102 WP MM FORREST 1986-10-10 12:00:00 NR 10.4243 177.780 main 2716 2716 __________P___ -1 10.4243 177.780 0 6 277
1986283N10179 1986 102 WP MM FORREST 1986-10-10 15:00:00 NR 10.4613 177.470 main 2738 2738 __________P___ -1 10.4613 177.470 0 6 277
1986283N10179 1986 102 WP MM FORREST 1986-10-10 18:00:00 NR 10.5024 177.139 main 2776 2761 __________P___ -1 10.5024 177.139 0 7 277
1986283N10179 1986 102 WP MM FORREST 1986-10-10 21:00:00 NR 10.5484 176.784 main 2761 2741 __________P___ -1 10.5484 176.784 0 7 278
1986283N10179 1986 102 WP MM FORREST 1986-10-11 00:00:00 NR 10.6000 176.400 main 2741 2721 __________O___ -1 10.6000 176.400 0 8 278
1986283N10179 1986 102 WP MM FORREST 1986-10-11 03:00:00 NR 10.6568 175.984 main 2722 2695 __________P___ -1 10.6568 175.984 0 9 278
1986283N10179 1986 102 WP MM FORREST 1986-10-11 06:00:00 NR 10.7134 175.531 main 2689 2669 __________P___ -1 10.7134 175.531 0 9 277
1986283N10179 1986 102 WP MM FORREST 1986-10-11 09:00:00 NR 10.7634 175.037 main 2664 2632 __________P___ -1 10.7634 175.037 0 10 275
1986283N10179 1986 102 WP MM FORREST 1986-10-11 12:00:00 NR 10.8000 174.500 main 2632 2594 __________O___ -1 10.8000 174.500 0 11 272
1986283N10179 1986 102 WP MM FORREST 1986-10-11 15:00:00 NR 10.8104 173.910 main 2594 2558 __________P___ -1 10.8104 173.910 0 12 270
1986283N10179 1986 102 WP MM FORREST 1986-10-11 18:00:00 NR 10.8077 173.280 main 2558 2522 __________P___ -1 10.8077 173.280 0 13 270
1986283N10179 1986 102 WP MM FORREST 1986-10-11 21:00:00 NR 10.8010 172.635 main 2517 2483 __________P___ -1 10.8010 172.635 0 13 270
1986283N10179 1986 102 WP MM FORREST 1986-10-12 00:00:00 NR 10.8000 172.000 main 2483 2450 __________O___ -1 10.8000 172.000 1 12 271
1986283N10179 1986 102 WP MM FORREST 1986-10-12 03:00:00 NR 10.8133 171.407 main 2450 2424 __________P___ -1 10.8133 171.407 1 12 272
1986283N10179 1986 102 WP MM FORREST 1986-10-12 06:00:00 NR 10.8345 170.828 main 2419 2404 __________P___ -1 10.8345 170.828 1 11 273
1986283N10179 1986 102 WP MM FORREST 1986-10-12 09:00:00 NR 10.8634 170.260 main 2404 2376 __________P___ -1 10.8634 170.260 1 11 273
1986283N10179 1986 102 WP MM FORREST 1986-10-12 12:00:00 NR 10.9000 169.700 main 2376 2354 __________O___ -1 10.9000 169.700 1 15 11 273
1986283N10179 1986 102 WP MM FORREST 1986-10-12 15:00:00 NR 10.9182 169.134 main 2349 2328 __________P___ -1 10.9182 169.134 1 17 11 272
1986283N10179 1986 102 WP MM FORREST 1986-10-12 18:00:00 NR 10.9472 168.577 main 2328 2319 __________P___ -1 10.9472 168.577 1 20 11 274
1986283N10179 1986 102 WP MM FORREST 1986-10-12 21:00:00 NR 11.0026 168.031 main 2315 2304 __________P___ -1 11.0026 168.031 1 22 11 278
1986283N10179 1986 102 WP MM FORREST 1986-10-13 00:00:00 NR 11.1000 167.500 main 2307 2298 __________O___ -1 11.1000 167.500 1 25 11 284
1986283N10179 1986 102 WP MM FORREST 1986-10-13 03:00:00 NR 11.2524 166.990 main 2307 2282 __________P___ -1 11.2524 166.990 1 25 9 286
1986283N10179 1986 102 WP MM FORREST 1986-10-13 06:00:00 TS 11.3575 166.594 1008 tokyo main 2291 2275 _O________P___ -1 11.0000 167.000 2 1008 0 0 0 11.4469 166.493 1 25 9 290
1986283N10179 1986 102 WP MM FORREST 1986-10-13 09:00:00 TS 11.5496 166.162 main 2275 2269 _P________P___ -1 11.3128 166.488 2 1008 0 0 11.6680 165.999 1 25 8 299
1986283N10179 1986 102 WP MM FORREST 1986-10-13 12:00:00 TS 11.7625 165.837 1008 tokyo main 2272 2253 _OO_______O___ -1 11.5000 166.000 2 1008 0 0 0 12.0000 166.700 0 19 1006 11.9000 165.500 1 25 8 295
1986283N10179 1986 102 WP MM FORREST 1986-10-13 15:00:00 TS 11.8871 165.414 main 2253 2228 _PP_______P___ -1 11.4997 165.537 2 1007 0 0 12.1853 165.998 0 19 1006 12.1255 164.998 1 26 10 288
1986283N10179 1986 102 WP MM FORREST 1986-10-13 18:00:00 TS 12.0570 164.895 1006 tokyo main 2237 2214 _OO_______P___ -1 11.5000 165.000 2 1006 0 0 0 12.4000 165.300 0 19 1006 12.3568 164.487 1 27 12 292
1986283N10179 1986 102 WP MM FORREST 1986-10-13 21:00:00 TS 12.3233 164.288 main 2214 2192 _PP_______P___ -1 11.7276 164.288 2 1005 0 0 12.6574 164.620 0 21 1005 12.5848 163.958 1 28 13 292
1986283N10179 1986 102 WP MM FORREST 1986-10-14 00:00:00 TS 12.5667 163.633 1004 tokyo main 2195 2166 _OO_______O___ -1 12.0000 163.500 2 1004 0 0 0 12.9000 164.000 1 23 1004 12.8000 163.400 1 30 13 288
1986283N10179 1986 102 WP MM FORREST 1986-10-14 03:00:00 TS 12.7385 163.008 main 2166 2148 _PP_______P___ -1 12.1574 162.735 2 1003 0 0 13.0647 163.485 1 26 1003 12.9933 162.803 1 30 13 285
1986283N10179 1986 102 WP MM FORREST 1986-10-14 06:00:00 TS 12.8908 162.393 1002 tokyo main 2148 2123 _OO_______P___ -1 12.3000 162.000 2 1002 0 0 0 13.2000 163.000 1 29 1002 13.1723 162.180 1 30 12 285
1986283N10179 1986 102 WP MM FORREST 1986-10-14 09:00:00 TS 13.0582 161.783 main 2132 2107 _PP_______P___ -1 12.4847 161.335 2 1002 0 0 13.3498 162.472 1 29 1002 13.3401 161.541 1 30 12 286
1986283N10179 1986 102 WP MM FORREST 1986-10-14 12:00:00 TS 13.2333 161.167 1002 tokyo main 2107 2094 _OO_______O___ -1 12.7000 160.700 2 1002 0 0 0 13.5000 161.900 1 29 1002 13.5000 160.900 1 30 13 286
1986283N10179 1986 102 WP MM FORREST 1986-10-14 15:00:00 TS 13.4115 160.551 main 2094 2078 _PP_______P___ -1 12.9499 160.043 2 1002 0 0 13.6572 161.295 1 29 1002 13.6275 160.314 1 30 13 286
1986283N10179 1986 102 WP MM FORREST 1986-10-14 18:00:00 TS 13.5844 159.908 1002 tokyo main 2078 2058 _OO_______P___ -1 13.2000 159.400 2 1002 0 0 0 13.8000 160.600 1 29 1002 13.7531 159.723 1 30 13 283
1986283N10179 1986 102 WP MM FORREST 1986-10-14 21:00:00 TS 13.7190 159.217 main 2053 2039 _PP_______P___ -1 13.3474 158.777 2 1001 0 0 13.9075 159.780 1 29 1001 13.9022 159.095 1 30 14 283
1986283N10179 1986 102 WP MM FORREST 1986-10-15 00:00:00 TS 13.9000 158.500 1000 tokyo main 2040 2032 _OO_______O___ -1 13.6000 158.200 2 1000 0 0 0 14.0000 158.900 1 29 1000 14.1000 158.400 1 30 15 290
1986283N10179 1986 102 WP MM FORREST 1986-10-15 03:00:00 TS 14.2204 157.776 main 2040 2036 _PP_______P___ -1 14.1994 157.738 2 998 0 0 14.0701 158.012 1 29 999 14.3916 157.578 1 33 16 295
1986283N10179 1986 102 WP MM FORREST 1986-10-15 06:00:00 TS 14.5762 157.030 40 996 tokyo main 2051 2047 _OO_______P___ -1 14.8000 157.200 3 40 996 0 9 80 80 0 14.2000 157.200 1 29 998 14.7285 156.689 1 37 16 294
1986283N10179 1986 102 WP MM FORREST 1986-10-15 09:00:00 TS 14.8659 156.266 main 2059 2050 _PP_______P___ -1 15.0601 156.409 3 40 995 0 9 90 90 14.4616 156.607 1 29 998 15.0760 155.781 1 41 16 290
1986283N10179 1986 102 WP MM FORREST 1986-10-15 12:00:00 TS 15.1333 155.467 40 994 tokyo main 2057 2054 _OO_______O___ -1 15.2000 155.500 3 40 994 0 9 100 100 0 14.8000 156.000 1 29 998 15.4000 154.900 2 45 17 288
1986283N10179 1986 102 WP MM FORREST 1986-10-15 15:00:00 TS 15.3863 154.639 main 2068 2066 _PP_______P___ -1 15.3772 154.607 3 42 992 0 9 100 100 15.1422 155.175 1 33 994 15.6395 154.137 2 48 17 288
1986283N10179 1986 102 WP MM FORREST 1986-10-15 18:00:00 TS 15.6513 153.773 45 990 tokyo main 2085 2081 OOOO______P___ jtwc_wp WP201986 15.6000 153.600 55 0 15.6000 153.700 3 45 990 0 9 100 100 0 15.5000 154.200 2 38 990 15.7000 154.000 TD 30 990 15.8547 153.405 2 52 18 288
1986283N10179 1986 102 WP MM FORREST 1986-10-15 21:00:00 TS 15.9549 152.849 main 2105 2103 PPPP______P___ WP201986 15.9608 152.746 57 0 15.9345 152.808 3 47 987 0 9 125 125 15.8651 153.115 2 48 989 15.9441 152.858 TD 37 988 16.0676 152.671 2 56 19 289
1986283N10179 1986 102 WP MM FORREST 1986-10-16 00:00:00 TS 16.2611 151.906 50 985 tokyo main 2119 2112 OOOO______O___ jtwc_wp WP201986 16.3000 151.900 60 0 16.3000 151.900 4 50 985 0 9 150 150 0 16.2000 152.000 3 58 988 16.2000 151.800 TS 45 987 16.3000 151.900 2 60 19 288
1986283N10179 1986 102 WP MM FORREST 1986-10-16 03:00:00 TS 16.5423 150.977 main 2120 2120 PPPP______P___ WP201986 16.6070 151.065 62 0 16.5996 150.964 4 52 982 0 9 150 150 16.4421 150.962 3 58 986 16.4841 150.877 TS 50 986 16.5788 151.019 2 62 19 288
1986283N10179 1986 102 WP MM FORREST 1986-10-16 06:00:00 TS 16.8356 150.060 55 980 tokyo main 2137 2137 OOOO______P___ jtwc_wp WP201986 16.9000 150.200 65 1 16.9000 150.000 4 55 980 9 30 30 9 150 150 0 16.7000 150.000 3 58 984 16.8000 150.000 STS 55 985 16.8782 150.100 2 65 19 289
1986283N10179 1986 102 WP MM FORREST 1986-10-16 09:00:00 TS 17.1717 149.102 main 2169 2109 PPPP______P___ WP201986 17.1926 149.235 67 1 17.2427 148.963 4 60 977 9 40 40 9 162 150 17.0845 149.113 3 63 981 17.1501 149.020 STS 60 980 17.1882 149.181 2 67 19 291
1986283N10179 1986 102 WP MM FORREST 1986-10-16 12:00:00 TS 17.5200 148.200 65 975 tokyo main 2109 2052 OOOO______O___ jtwc_wp WP201986 17.5000 148.300 70 1 17.6000 148.000 5 65 975 9 50 50 8 175 150 0 17.5000 148.300 4 68 978 17.5000 148.100 T 65 975 17.5000 148.300 4 70 17 293
1986283N10179 1986 102 WP MM FORREST 1986-10-16 15:00:00 TS 17.8552 147.423 main 2038 1985 PPPP______P___ WP201986 17.8568 147.520 80 1 17.9718 147.247 5 67 967 9 62 62 8 187 162 17.8571 147.527 4 72 969 17.7994 147.354 T 70 967 17.7911 147.466 4 77 16 295
1986283N10179 1986 102 WP MM FORREST 1986-10-16 18:00:00 TS 18.1768 146.716 70 960 tokyo main 1982 1927 OOOO______P___ jtwc_wp WP201986 18.2000 146.800 90 2 18.3000 146.600 5 70 960 9 75 75 8 200 175 0 18.2000 146.800 4 77 960 18.1000 146.700 T 75 960 18.0842 146.679 4 85 15 294
1986283N10179 1986 102 WP MM FORREST 1986-10-16 21:00:00 TS 18.4700 145.998 main 1927 1888 PPPP______P___ WP201986 18.4501 146.012 95 2 18.5149 145.920 5 77 950 9 87 87 8 200 187 18.5499 146.070 4 82 952 18.4498 146.035 T 80 952 18.3852 145.953 4 92 14 294
1986283N10179 1986 102 WP MM FORREST 1986-10-17 00:00:00 TS 18.7600 145.340 85 940 tokyo main 1875 1829 OOOO______O___ jtwc_wp WP201986 18.7000 145.300 100 3 18.7000 145.300 5 85 940 9 100 100 9 200 200 0 18.9000 145.400 5 87 945 18.8000 145.400 ST 85 945 18.7000 145.300 4 100 13 297
1986283N10179 1986 102 WP MM FORREST 1986-10-17 03:00:00 TS 19.0761 144.763 main 1829 1775 PPPP______P___ WP201986 19.0345 144.762 105 3 18.9197 144.777 5 85 935 9 100 100 9 200 200 19.2722 144.812 5 87 942 19.1074 144.770 ST 87 937 19.0468 144.691 4 98 12 302
1986283N10179 1986 102 WP MM FORREST 1986-10-17 06:00:00 TS 19.4013 144.252 85 930 tokyo main 1775 1722 OOOO______P___ jtwc_wp WP201986 19.4000 144.300 110 3 19.2000 144.300 5 85 930 9 100 100 9 200 200 0 19.6000 144.300 5 87 940 19.4000 144.200 ST 90 930 19.4064 144.158 4 97 12 304
1986283N10179 1986 102 WP MM FORREST 1986-10-17 09:00:00 TS 19.7270 143.755 main 1722 1670 PPPP______P___ WP201986 19.7651 143.770 102 3 19.5926 143.770 5 87 932 9 100 100 9 212 212 19.8073 143.835 5 92 935 19.7073 143.705 ST 90 930 19.7628 143.695 4 96 11 306
1986283N10179 1986 102 WP MM FORREST 1986-10-17 12:00:00 TS 20.0400 143.320 90 935 tokyo main 1670 1626 OOOO______O___ jtwc_wp WP201986 20.1000 143.300 95 2 20.0000 143.300 5 90 935 9 100 100 9 225 225 0 20.0000 143.400 5 97 931 20.0000 143.300 ST 90 930 20.1000 143.300 4 95 10 308
1986283N10179 1986 102 WP MM FORREST 1986-10-17 15:00:00 TS 20.3259 142.941 main 1622 1583 PPPP______P___ WP201986 20.3573 142.962 92 2 20.3223 142.962 5 87 945 9 100 100 9 225 225 20.2926 142.905 5 92 943 20.2574 142.962 ST 87 940 20.4001 142.911 4 93 8 311
1986283N10179 1986 102 WP MM FORREST 1986-10-17 18:00:00 TS 20.5959 142.638 85 955 tokyo main 1578 1550 OOOO______P___ jtwc_wp WP201986 20.6000 142.700 90 2 20.6000 142.700 5 85 955 9 100 100 9 225 225 0 20.6000 142.500 5 87 955 20.5000 142.700 ST 85 950 20.6794 142.592 4 92 8 316
1986283N10179 1986 102 WP MM FORREST 1986-10-17 21:00:00 TS 20.8618 142.381 main 1539 1511 PPPP______P___ WP201986 20.9000 142.405 90 2 20.8575 142.405 5 80 957 9 95 95 9 212 187 20.8573 142.275 5 82 957 20.7500 142.470 ST 82 955 20.9441 142.352 4 91 7 323
1986283N10179 1986 102 WP MM FORREST 1986-10-18 00:00:00 TS 21.1200 142.220 75 960 tokyo main 1511 1480 OOOO______O___ jtwc_wp WP201986 21.2000 142.200 90 2 21.1000 142.200 5 75 960 9 90 90 8 200 150 0 21.1000 142.200 4 77 960 21.0000 142.300 T 80 960 21.2000 142.200 4 90 5 338
1986283N10179 1986 102 WP MM FORREST 1986-10-18 03:00:00 TS 21.3689 142.162 main 1480 1459 PPPP______P___ WP201986 21.4574 142.155 90 2 21.3499 142.162 5 75 960 9 90 90 8 200 150 21.3500 142.227 4 77 960 21.2425 142.163 T 80 960 21.4446 142.102 4 90 5 355
1986283N10179 1986 102 WP MM FORREST 1986-10-18 06:00:00 TS 21.6169 142.179 75 960 tokyo main 1459 1429 OOOO______P___ jtwc_wp WP201986 21.7000 142.200 90 2 21.6000 142.200 5 75 960 9 90 90 8 200 150 0 21.6000 142.300 4 77 960 21.5000 142.100 T 80 960 21.6844 142.093 4 90 5 3
1986283N10179 1986 102 WP MM FORREST 1986-10-18 09:00:00 TS 21.8734 142.191 main 1429 1408 PPPP______P___ WP201986 21.9500 142.235 90 2 21.8425 142.170 5 75 960 9 90 90 8 200 150 21.8500 142.285 4 77 960 21.7925 142.105 T 77 960 21.9321 142.162 4 90 5 9
1986283N10179 1986 102 WP MM FORREST 1986-10-18 12:00:00 TS 22.1400 142.260 75 960 tokyo main 1413 1383 OOOO______O___ jtwc_wp WP201986 22.2000 142.300 90 2 22.1000 142.200 5 75 960 9 90 90 8 200 150 0 22.1000 142.300 4 77 960 22.1000 142.200 T 75 960 22.2000 142.300 4 90 6 17
1986283N10179 1986 102 WP MM FORREST 1986-10-18 15:00:00 TS 22.3987 142.369 main 1387 1362 PPPP______P___ WP201986 22.4273 142.348 90 2 22.3850 142.355 5 75 960 9 90 90 8 200 150 22.3274 142.398 4 77 960 22.3924 142.355 T 75 960 22.4613 142.391 4 88 6 28
1986283N10179 1986 102 WP MM FORREST 1986-10-18 18:00:00 TS 22.6899 142.572 75 960 tokyo main 1367 1347 OOOO______P___ jtwc_wp WP201986 22.7000 142.500 90 2 22.7000 142.600 5 75 960 9 90 90 8 200 150 0 22.6000 142.600 4 77 960 22.7000 142.600 T 75 960 22.7497 142.557 4 87 8 35
1986283N10179 1986 102 WP MM FORREST 1986-10-18 21:00:00 TS 23.0303 142.842 main 1347 1320 PPPP______P___ WP201986 23.0697 142.810 87 2 23.0195 142.826 5 75 962 9 107 87 8 200 150 22.9621 142.868 4 77 960 23.0119 142.861 T 75 960 23.0884 142.845 4 86 10 41
1986283N10179 1986 102 WP MM FORREST 1986-10-19 00:00:00 TS 23.4400 143.280 75 965 tokyo main 1323 1286 OOOO______O___ jtwc_wp WP201986 23.5000 143.300 85 2 23.4000 143.200 5 75 965 1 125 85 1 200 150 0 23.4000 143.300 4 77 960 23.4000 143.300 T 75 960 23.5000 143.300 4 85 13 49
1986283N10179 1986 102 WP MM FORREST 1986-10-19 03:00:00 TS 23.8827 143.908 main 1286 1259 PPPP______P___ WP201986 23.9045 143.911 82 1 23.8701 143.825 5 72 967 1 112 92 1 200 175 23.8623 143.918 4 72 965 23.8976 144.010 T 72 962 23.8788 143.877 4 82 16 53
1986283N10179 1986 102 WP MM FORREST 1986-10-19 06:00:00 TS 24.4090 144.707 70 970 tokyo main 1259 1234 OOOO______P___ jtwc_wp WP201986 24.4000 144.700 80 1 24.4000 144.600 5 70 970 9 100 100 9 200 200 0 24.4000 144.700 4 68 970 24.5000 144.900 T 70 965 24.3452 144.633 4 80 18 53
1986283N10179 1986 102 WP MM FORREST 1986-10-19 09:00:00 TS 24.9808 145.537 main 1228 1205 PPPP______P___ WP201986 25.0167 145.612 77 1 24.8349 145.271 5 70 972 9 100 100 9 200 200 24.9581 145.484 4 63 974 25.1305 145.749 T 70 970 24.9640 145.571 4 77 22 52
1986283N10179 1986 102 WP MM FORREST 1986-10-19 12:00:00 TS 25.7400 146.580 70 975 tokyo main 1210 1180 OOOO______O___ jtwc_wp WP201986 25.8000 146.700 75 1 25.5000 146.200 5 70 975 9 100 100 9 200 200 0 25.7000 146.500 3 58 978 25.9000 146.800 T 70 975 25.8000 146.700 4 75 28 51
1986283N10179 1986 102 WP MM FORREST 1986-10-19 15:00:00 TS 26.7203 147.908 main 1186 1173 PPPP______P___ WP201986 26.6555 147.887 72 1 26.6084 147.651 5 65 977 9 115 100 9 225 200 26.6650 147.876 3 58 979 26.7730 148.206 T 65 977 26.8995 147.921 4 72 34 49
1986283N10179 1986 102 WP MM FORREST 1986-10-19 18:00:00 TS 27.9613 149.471 60 980 tokyo main 1175 1173 OOOO______P___ jtwc_wp WP201986 27.8000 149.300 70 1 28.0000 149.400 4 60 980 2 130 100 2 250 200 0 27.9000 149.500 3 58 980 27.9000 149.800 STS 60 980 28.2064 149.355 4 70 40 46
1986283N10179 1986 102 WP MM FORREST 1986-10-19 21:00:00 TS 29.4708 151.156 main 1184 1184 PPPP______P___ WP201986 29.3602 151.009 67 1 29.5379 151.211 4 60 982 2 140 100 2 275 200 29.4633 151.187 3 58 980 29.3579 151.358 STS 60 982 29.6349 151.012 4 67 43 45
1986283N10179 1986 102 WP MM FORREST 1986-10-20 00:00:00 MX 31.0421 152.958 60 985 tokyo main 1236 1236 OOOO______O___ jtwc_wp WP201986 31.1000 152.900 65 1 31.0000 153.000 4 60 985 2 150 100 2 300 200 0 31.0000 153.000 9 58 980 31.0000 153.000 STS 60 985 31.1000 152.900 4 65 42 47
1986283N10179 1986 102 WP MM FORREST 1986-10-20 03:00:00 MX 32.3214 154.783 main 1332 1332 PPPP______P___ WP201986 32.7723 154.644 60 0 32.1484 154.623 4 988 2 2 31.6831 154.860 9 53 982 32.6229 154.752 STS 57 987 32.5312 155.023 4 58 40 52
1986283N10179 1986 102 WP MM FORREST 1986-10-20 06:00:00 ET 33.5224 156.665 992 tokyo main 1451 1378 OOOO______P___ jtwc_wp WP201986 34.3000 156.700 55 0 33.0000 156.000 6 992 0 0 0 33.0000 156.800 9 48 985 34.2000 156.600 STS 55 990 33.9118 157.356 4 52 42 47
1986283N10179 1986 102 WP MM FORREST 1986-10-20 09:00:00 ET 35.1794 158.521 main 1373 1321 PPP_______P___ WP201986 35.5192 159.389 47 0 33.5719 157.081 6 998 0 0 36.5883 158.857 9 43 987 STS 35.2366 159.864 4 46 42 42
1986283N10179 1986 102 WP MM FORREST 1986-10-20 12:00:00 ET 36.6556 160.133 1004 tokyo main 1314 1305 OOO_______O___ jtwc_wp WP201986 36.5000 162.500 40 0 34.0000 158.000 6 1004 0 0 0 40.3000 161.400 9 38 990 36.5000 162.500 2 40 27 44
1986283N10179 1986 102 WP MM FORREST 1986-10-20 15:00:00 ET 37.1382 160.896 main 1321 1321 _PP___________ WP201986 -1 34.5756 159.073 6 1005 0 0 42.2632 164.542 9 33 994 2 12 93
1986283N10179 1986 102 WP MM FORREST 1986-10-20 18:00:00 ET 36.6000 161.600 1006 tokyo main 1403 1403 _OO___________ -1 35.0000 160.000 6 1006 0 0 0 43.0000 168.000 9 29 998 2 22 188
1986283N10179 1986 102 WP MM FORREST 1986-10-20 21:00:00 ET 34.9973 160.505 main 1488 1488 _P____________ -1 34.9973 160.505 6 1009 0 0 9 2 17 197
1986283N10179 1986 102 WP MM FORREST 1986-10-21 00:00:00 ET 35.0000 161.000 1012 tokyo main 1514 1511 _O____________ -1 35.0000 161.000 6 1012 0 0 0 13 67
1986283N10179 1986 102 WP MM FORREST 1986-10-21 03:00:00 ET 35.5007 161.920 main 1517 1514 _P____________ -1 35.5007 161.920 6 1012 0 0 19 58
1986283N10179 1986 102 WP MM FORREST 1986-10-21 06:00:00 ET 36.0000 163.000 1012 tokyo main 1534 1534 _O____________ -1 36.0000 163.000 6 1012 0 0 0 18 71
1986283N10179 1986 102 WP MM FORREST 1986-10-21 09:00:00 ET 36.0741 164.003 main 1584 1584 _P____________ -1 36.0741 164.003 6 1012 0 0 16 90
1986283N10179 1986 102 WP MM FORREST 1986-10-21 12:00:00 ET 36.0000 165.000 1012 tokyo main 1653 1653 _O____________ -1 36.0000 165.000 6 1012 0 0 0 16 90
1986283N10179 1986 102 WP MM FORREST 1986-10-21 15:00:00 ET 36.0741 165.997 main 1707 1707 _P____________ -1 36.0741 165.997 6 1012 0 0 16 90
1986283N10179 1986 102 WP MM FORREST 1986-10-21 18:00:00 ET 36.0000 167.000 1012 tokyo main 1779 1779 _O____________ -1 36.0000 167.000 6 1012 0 0 0 17 110
1986283N10179 1986 102 WP MM FORREST 1986-10-21 21:00:00 ET 35.4992 168.004 main 1882 1882 _P____________ -1 35.4992 168.004 6 1012 0 0 19 122
1986283N10179 1986 102 WP MM FORREST 1986-10-22 00:00:00 ET 35.0000 169.000 1012 tokyo main 1986 1986 _O____________ -1 35.0000 169.000 6 1012 0 0 0 17 109
1986283N10179 1986 102 WP MM FORREST 1986-10-22 03:00:00 ET 34.9242 169.997 main 2046 2046 _P____________ -1 34.9242 169.997 6 1012 0 0 16 90
1986283N10179 1986 102 WP MM FORREST 1986-10-22 06:00:00 ET 35.0000 171.000 1012 tokyo main 2082 2082 _O____________ -1 35.0000 171.000 6 1012 0 0 0 16 87
1986283N10179 1986 102 WP MM FORREST 1986-10-22 09:00:00 ET 35.0211 171.977 main 2130 2130 _P____________ -1 35.0211 171.977 6 1012 0 0 16 90
1986283N10179 1986 102 WP MM FORREST 1986-10-22 12:00:00 ET 35.0000 173.000 1012 tokyo main 2180 2180 _O____________ -1 35.0000 173.000 6 1012 0 0 0 18 94
1986283N10179 1986 102 WP MM FORREST 1986-10-22 15:00:00 ET 34.9024 174.142 main 2246 2246 _P____________ -1 34.9024 174.142 6 1013 0 0 19 99
1986283N10179 1986 102 WP MM FORREST 1986-10-22 18:00:00 ET 34.7000 175.300 1014 tokyo main 2328 2328 _O____________ -1 34.7000 175.300 6 1014 0 0 0 19 105
1986283N10179 1986 102 WP MM FORREST 1986-10-22 21:00:00 ET 34.3941 176.380 main 2359 2354 _P____________ -1 34.3941 176.380 6 1015 0 0 19 112
1986283N10179 1986 102 WP MM FORREST 1986-10-23 00:00:00 ET 34.0000 177.400 1016 tokyo main 2363 2359 _O____________ -1 34.0000 177.400 6 1016 0 0 0 18 117
1986283N10179 1986 102 WP MM FORREST 1986-10-23 03:00:00 ET 33.5614 178.367 main 2369 2369 _P____________ -1 33.5614 178.367 6 1016 0 0 18 120
1986283N10179 1986 102 WP MM FORREST 1986-10-23 06:00:00 ET 33.1000 179.300 1016 tokyo main 2393 _O____________ -1 33.1000 179.300 6 1016 0 0 0 18 121

デジタル台風データ・検索

IBTrACS Databaseについて

本データベースは、米国NOAAが公開する1842年以降の世界の熱帯低気圧のベストトラックデータアーカイブInternational Best Track Archive for Climate Stewardship (IBTrACS)を、ウェブで閲覧しやすい形式に変換したものです。

最終更新日:2021-10-08